Time;durP1;ratioP1;P1;durP2;ratioP2;P2;SDS_P1;SDS_P2;PMS_P1;PMS_P2;Temp;Humidity;BMP_temperature;BMP_pressure;BME280_temperature;BME280_humidity;BME280_pressure;Samples;Min_cycle;Max_cycle;Signal;HPM_P1;HPM_P2
2022/03/14 00:02:17;;;;;;;3.67;2.07;;;;;;;22.93;31.37;101670.88;5106052;28;20031;-70
2022/03/14 00:04:43;;;;;;;3.90;1.80;;;;;;;23.47;30.42;101670.91;5129281;27;20031;-70
2022/03/14 00:07:08;;;;;;;2.27;1.73;;;;;;;22.15;32.20;101674.47;5115524;27;20071;-71
2022/03/14 00:09:33;;;;;;;2.57;1.67;;;;;;;23.27;30.74;101674.56;5114992;27;20039;-70
2022/03/14 00:11:59;;;;;;;2.50;1.60;;;;;;;22.40;31.92;101678.69;5134064;27;20035;-70
2022/03/14 00:14:27;;;;;;;1.47;1.37;;;;;;;22.90;31.31;101677.22;5112317;27;20031;-70
2022/03/14 00:16:54;;;;;;;2.17;1.60;;;;;;;22.20;32.21;101683.13;5113305;27;20041;-70
2022/03/14 00:19:20;;;;;;;2.17;1.57;;;;;;;21.89;33.03;101694.28;5132952;27;20030;-70
2022/03/14 00:21:46;;;;;;;2.43;1.97;;;;;;;21.92;32.71;101690.63;5134186;27;20397;-70
2022/03/14 00:24:12;;;;;;;2.03;1.50;;;;;;;21.66;33.67;101687.28;5110252;28;20047;-70
2022/03/14 00:26:39;;;;;;;2.63;1.60;;;;;;;22.26;32.66;101686.44;5110912;27;20062;-70
2022/03/14 00:29:06;;;;;;;2.60;2.03;;;;;;;22.03;32.96;101691.84;5128994;27;20027;-70
2022/03/14 00:31:32;;;;;;;2.60;1.97;;;;;;;21.66;33.51;101695.28;5132327;27;20478;-70
2022/03/14 00:33:57;;;;;;;2.63;1.60;;;;;;;20.60;35.17;101700.38;5131880;27;20465;-70
2022/03/14 00:36:25;;;;;;;2.90;1.90;;;;;;;21.09;34.83;101709.13;5132263;27;20107;-70
2022/03/14 00:38:51;;;;;;;2.50;1.40;;;;;;;21.62;33.85;101707.81;5133098;27;20023;-70
2022/03/14 00:41:16;;;;;;;2.00;1.47;;;;;;;21.06;34.49;101703.03;5114409;27;20062;-70
2022/03/14 00:43:43;;;;;;;1.97;1.60;;;;;;;20.96;34.79;101697.25;5111723;27;20312;-70
2022/03/14 00:46:08;;;;;;;2.63;1.70;;;;;;;21.24;34.74;101717.38;5129510;27;20023;-71
2022/03/14 00:48:35;;;;;;;2.10;1.60;;;;;;;20.59;35.54;101714.59;5130942;27;20039;-70
2022/03/14 00:51:02;;;;;;;2.20;1.60;;;;;;;21.74;33.77;101717.09;5112650;27;20023;-70
2022/03/14 00:53:28;;;;;;;3.53;1.57;;;;;;;20.12;36.42;101716.28;5131305;27;20072;-70
2022/03/14 00:55:53;;;;;;;3.23;1.60;;;;;;;22.08;33.05;101718.28;5114526;27;20031;-70
2022/03/14 00:58:19;;;;;;;2.53;1.60;;;;;;;21.30;33.96;101723.31;5112127;27;20079;-70
2022/03/14 01:00:47;;;;;;;3.20;2.07;;;;;;;20.86;34.93;101727.78;5113868;27;20031;-70
2022/03/14 01:03:12;;;;;;;2.93;1.77;;;;;;;20.05;36.91;101733.34;5132897;27;20114;-70
2022/03/14 01:05:37;;;;;;;4.37;1.77;;;;;;;19.68;37.43;101734.59;5132976;27;20123;-70
2022/03/14 01:08:03;;;;;;;2.87;1.83;;;;;;;19.27;38.18;101739.50;5114579;27;20486;-70
2022/03/14 01:10:29;;;;;;;2.50;1.70;;;;;;;20.19;36.73;101738.16;5114756;27;20029;-70
2022/03/14 01:12:54;;;;;;;2.70;1.97;;;;;;;20.21;36.44;101730.16;5130276;27;20452;-70
2022/03/14 01:15:20;;;;;;;3.03;2.00;;;;;;;20.52;35.76;101740.50;5109061;27;20027;-70
2022/03/14 01:17:45;;;;;;;1.70;1.40;;;;;;;20.80;35.13;101744.78;5132784;27;20031;-70
2022/03/14 01:20:11;;;;;;;2.20;1.73;;;;;;;20.17;36.33;101746.19;5128897;27;20389;-70
2022/03/14 01:22:38;;;;;;;2.50;1.80;;;;;;;20.13;36.71;101743.72;5114511;27;20026;-70
2022/03/14 01:25:05;;;;;;;3.93;2.03;;;;;;;19.66;37.73;101741.75;5107681;28;20111;-70
2022/03/14 01:27:30;;;;;;;2.27;1.80;;;;;;;19.67;37.60;101739.06;5108899;28;20478;-70
2022/03/14 01:29:55;;;;;;;2.53;1.80;;;;;;;20.15;37.01;101747.16;5111365;28;20037;-70
2022/03/14 01:32:21;;;;;;;2.53;1.87;;;;;;;20.00;37.06;101743.25;5109848;28;20055;-70
2022/03/14 01:34:46;;;;;;;3.23;1.93;;;;;;;20.60;36.53;101742.88;5111258;28;20115;-70
2022/03/14 01:37:12;;;;;;;2.63;1.83;;;;;;;20.90;35.42;101745.31;5109703;28;20376;-70
2022/03/14 01:39:37;;;;;;;2.27;1.70;;;;;;;20.76;35.72;101746.72;5092244;28;20032;-70
2022/03/14 01:42:03;;;;;;;3.00;1.87;;;;;;;20.35;36.29;101754.41;5110333;28;20062;-70
2022/03/14 01:44:29;;;;;;;2.53;1.90;;;;;;;21.37;35.22;101755.84;5107670;28;20050;-70
2022/03/14 01:46:55;;;;;;;3.33;2.00;;;;;;;21.79;33.80;101763.00;5110285;28;20088;-70
2022/03/14 01:49:20;;;;;;;2.80;2.10;;;;;;;21.40;34.86;101766.34;5109229;28;20030;-70
2022/03/14 01:51:46;;;;;;;3.57;2.07;;;;;;;21.22;35.15;101767.97;5110709;28;20483;-70
2022/03/14 01:54:11;;;;;;;2.43;2.00;;;;;;;22.13;33.89;101780.19;5109065;28;20035;-70
2022/03/14 01:56:39;;;;;;;3.33;2.17;;;;;;;21.25;35.74;101782.91;5110854;28;20027;-70
2022/03/14 01:59:08;;;;;;;3.00;1.97;;;;;;;21.13;36.72;101790.47;5110688;28;20031;-70
2022/03/14 02:01:34;;;;;;;5.27;2.53;;;;;;;21.33;36.01;101788.78;5112055;28;20702;-70
2022/03/14 02:04:00;;;;;;;4.30;2.63;;;;;;;21.12;36.41;101788.72;5110616;28;20034;-70
2022/03/14 02:06:28;;;;;;;3.77;2.30;;;;;;;21.22;36.74;101799.00;5110692;28;20486;-70
2022/03/14 02:08:54;;;;;;;5.47;2.77;;;;;;;21.41;35.88;101792.00;5109593;28;20471;-70
2022/03/14 02:11:19;;;;;;;5.47;2.67;;;;;;;21.57;35.88;101794.97;5111334;28;20034;-70
2022/03/14 02:13:45;;;;;;;3.47;2.23;;;;;;;20.69;37.74;101795.69;5108889;28;20093;-70
2022/03/14 02:16:11;;;;;;;3.53;2.53;;;;;;;20.75;37.36;101806.06;5108490;28;20138;-70
2022/03/14 02:18:36;;;;;;;3.60;2.70;;;;;;;19.77;39.20;101816.53;5110990;28;20035;-70
2022/03/14 02:21:02;;;;;;;5.40;3.37;;;;;;;21.64;35.76;101808.88;5109573;28;20035;-70
2022/03/14 02:23:27;;;;;;;4.60;3.00;;;;;;;20.07;39.24;101819.09;5107895;28;20051;-70
2022/03/14 02:25:55;;;;;;;5.27;3.63;;;;;;;20.06;38.55;101827.97;5126680;27;20105;-70
2022/03/14 02:28:22;;;;;;;7.97;3.10;;;;;;;21.01;36.83;101823.69;5128304;27;20030;-70
2022/03/14 02:30:49;;;;;;;4.70;3.07;;;;;;;20.78;36.84;101827.22;5109023;27;20035;-70
2022/03/14 02:33:15;;;;;;;5.20;3.30;;;;;;;19.71;38.51;101832.63;5129413;27;20483;-70
2022/03/14 02:35:42;;;;;;;4.80;3.73;;;;;;;20.61;37.73;101834.91;5111364;27;20019;-70
2022/03/14 02:38:09;;;;;;;5.30;3.63;;;;;;;20.22;38.63;101836.25;5129725;27;20075;-70
2022/03/14 02:40:35;;;;;;;5.00;3.53;;;;;;;20.20;38.02;101837.25;5112939;27;20049;-70
2022/03/14 02:43:01;;;;;;;4.93;3.83;;;;;;;20.76;37.29;101837.03;5112295;27;20493;-70
2022/03/14 02:45:27;;;;;;;4.87;3.60;;;;;;;19.63;39.59;101837.31;5128502;27;20019;-70
2022/03/14 02:47:52;;;;;;;5.97;3.97;;;;;;;20.30;38.49;101841.31;5130614;27;20035;-71
2022/03/14 02:50:18;;;;;;;5.33;4.20;;;;;;;20.91;36.73;101842.69;5126298;27;20036;-70
2022/03/14 02:52:43;;;;;;;5.57;4.03;;;;;;;20.97;36.83;101845.13;5107104;27;20096;-71
2022/03/14 02:55:08;;;;;;;6.27;4.23;;;;;;;21.19;36.17;101843.38;5105468;27;20459;-70
2022/03/14 02:57:34;;;;;;;7.57;4.30;;;;;;;20.96;36.63;101848.72;5096857;28;20027;-70
2022/03/14 02:59:59;;;;;;;7.37;4.60;;;;;;;20.77;37.27;101852.06;5101808;28;20033;-70
2022/03/14 03:02:25;;;;;;;6.47;4.27;;;;;;;20.82;37.05;101851.88;5105170;27;20035;-70
2022/03/14 03:04:52;;;;;;;6.23;4.27;;;;;;;21.12;36.77;101856.97;5110094;27;20037;-70
2022/03/14 03:07:19;;;;;;;7.70;4.40;;;;;;;19.86;38.66;101867.56;5112190;27;20030;-70
2022/03/14 03:09:45;;;;;;;5.70;3.80;;;;;;;20.59;37.80;101865.97;5112379;27;20035;-70
2022/03/14 03:12:14;;;;;;;6.43;4.93;;;;;;;19.76;39.10;101859.88;5096027;28;20038;-70
2022/03/14 03:14:40;;;;;;;6.53;4.73;;;;;;;20.44;38.08;101865.59;5125476;27;20035;-70
2022/03/14 03:17:06;;;;;;;6.67;4.63;;;;;;;19.85;39.26;101879.09;5111646;27;20083;-70
2022/03/14 03:19:32;;;;;;;7.53;5.27;;;;;;;19.37;39.96;101881.44;5112405;28;20033;-70
2022/03/14 03:21:58;;;;;;;7.83;5.73;;;;;;;18.90;41.66;101886.34;5129486;27;20039;-70
2022/03/14 03:24:23;;;;;;;7.27;4.87;;;;;;;19.24;41.49;101895.97;5127564;27;20039;-70
2022/03/14 03:26:48;;;;;;;8.70;5.37;;;;;;;19.04;41.46;101900.06;5110067;28;20557;-70
2022/03/14 03:29:14;;;;;;;7.83;5.37;;;;;;;19.02;41.75;101912.47;5110463;27;20066;-70
2022/03/14 03:31:39;;;;;;;9.23;5.63;;;;;;;19.63;41.33;101911.56;5112197;28;20033;-70
2022/03/14 03:34:05;;;;;;;7.67;5.20;;;;;;;17.99;45.88;101918.66;5105495;28;20059;-69
2022/03/14 03:36:30;;;;;;;7.90;5.43;;;;;;;19.51;42.78;101918.13;5107977;28;20034;-70
2022/03/14 03:38:58;;;;;;;9.00;6.30;;;;;;;18.68;44.73;101937.19;5130610;27;20034;-69
2022/03/14 03:41:23;;;;;;;11.70;7.50;;;;;;;18.63;45.10;101939.97;5133657;27;20398;-70
2022/03/14 03:43:49;;;;;;;13.83;8.50;;;;;;;19.42;43.01;101940.47;5114916;27;20031;-70
2022/03/14 03:46:14;;;;;;;14.93;9.00;;;;;;;19.90;42.35;101938.19;5114605;27;20042;-69
2022/03/14 03:48:39;;;;;;;15.63;9.40;;;;;;;20.21;41.89;101939.84;5133786;27;20046;-70
2022/03/14 03:51:05;;;;;;;13.77;8.50;;;;;;;18.97;43.47;101956.75;5116564;27;20114;-70
2022/03/14 03:53:30;;;;;;;14.83;8.63;;;;;;;20.60;40.60;101960.66;5115979;27;20042;-70
2022/03/14 03:55:56;;;;;;;15.00;9.27;;;;;;;20.01;41.85;101957.28;5129202;27;20027;-70
2022/03/14 03:58:21;;;;;;;14.77;8.37;;;;;;;20.15;41.94;101971.00;5132709;27;20031;-70
2022/03/14 04:00:46;;;;;;;14.60;9.53;;;;;;;19.86;42.04;101979.00;5133257;27;20110;-70
2022/03/14 04:03:12;;;;;;;17.33;10.47;;;;;;;20.55;41.01;101973.22;5132430;27;20464;-70
2022/03/14 04:05:41;;;;;;;18.13;9.93;;;;;;;17.69;45.55;101984.50;5115019;27;20455;-70
2022/03/14 04:08:10;;;;;;;20.73;10.63;;;;;;;18.98;43.28;101995.59;5114159;27;20031;-70
2022/03/14 04:10:37;;;;;;;16.47;9.90;;;;;;;18.93;42.86;101997.50;5113601;27;20027;-69
2022/03/14 04:13:06;;;;;;;16.50;9.50;;;;;;;19.28;42.73;101995.69;5133745;27;20080;-70
2022/03/14 04:15:37;;;;;;;15.20;8.60;;;;;;;19.17;41.87;102011.88;5115116;27;20034;-70
2022/03/14 04:18:03;;;;;;;14.60;8.23;;;;;;;18.45;43.69;102011.91;5114716;27;20023;-70
2022/03/14 04:20:28;;;;;;;15.73;8.47;;;;;;;19.65;41.26;102018.47;5135025;27;20076;-70
2022/03/14 04:22:53;;;;;;;15.87;9.23;;;;;;;19.69;41.23;102019.25;5096586;27;20118;-70
2022/03/14 04:25:19;;;;;;;19.67;8.60;;;;;;;20.08;40.24;102038.44;5113142;27;20150;-71
2022/03/14 04:27:44;;;;;;;18.57;9.57;;;;;;;20.23;40.20;102025.59;5111504;27;20088;-70
2022/03/14 04:30:10;;;;;;;16.10;7.23;;;;;;;18.22;44.04;102041.59;5129981;27;20534;-70
2022/03/14 04:32:36;;;;;;;17.17;8.97;;;;;;;19.67;41.86;102037.84;5114669;27;20023;-70
2022/03/14 04:35:02;;;;;;;15.50;8.77;;;;;;;18.34;43.55;102051.00;5114087;27;20027;-70
2022/03/14 04:37:28;;;;;;;15.80;8.63;;;;;;;18.54;43.60;102054.06;5132336;27;20023;-70
2022/03/14 04:39:54;;;;;;;14.20;8.23;;;;;;;19.42;41.38;102065.06;5113850;27;20080;-70
2022/03/14 04:42:21;;;;;;;13.00;6.97;;;;;;;18.86;42.07;102064.75;5115004;27;20050;-70
2022/03/14 04:44:49;;;;;;;15.73;8.53;;;;;;;19.60;41.47;102062.81;5112587;27;20023;-69
2022/03/14 04:47:16;;;;;;;16.10;8.70;;;;;;;17.88;44.88;102081.97;5112684;27;20481;-69
2022/03/14 04:49:42;;;;;;;15.50;8.03;;;;;;;19.19;41.23;102070.13;5113253;28;20022;-70
2022/03/14 04:52:09;;;;;;;17.60;8.07;;;;;;;18.39;42.55;102075.59;5129189;27;20023;-70
2022/03/14 04:54:34;;;;;;;22.30;9.70;;;;;;;20.29;38.99;102086.47;5108241;27;20394;-70
2022/03/14 04:57:00;;;;;;;17.90;8.50;;;;;;;19.90;39.15;102087.63;5127194;27;20027;-70
2022/03/14 04:59:25;;;;;;;16.50;8.57;;;;;;;19.18;41.41;102089.59;5128867;27;20159;-69
2022/03/14 05:01:54;;;;;;;18.47;8.83;;;;;;;19.88;39.59;102093.88;5132298;27;20080;-70
2022/03/14 05:04:19;;;;;;;14.83;8.50;;;;;;;19.98;39.65;102105.97;5133446;27;20027;-70
2022/03/14 05:06:45;;;;;;;19.27;9.23;;;;;;;20.30;39.18;102109.44;5131523;27;20053;-70
2022/03/14 05:09:11;;;;;;;14.60;8.17;;;;;;;18.96;41.77;102119.31;5131248;27;20027;-70
2022/03/14 05:11:38;;;;;;;17.97;9.23;;;;;;;19.72;41.24;102122.63;5113564;27;20026;-70
2022/03/14 05:14:08;;;;;;;15.90;8.33;;;;;;;18.59;43.02;102130.75;5114337;27;20459;-70
2022/03/14 05:16:34;;;;;;;13.97;8.27;;;;;;;19.55;40.82;102123.06;5115135;27;20022;-70
2022/03/14 05:18:59;;;;;;;16.60;8.87;;;;;;;19.82;40.03;102130.31;5114187;27;20024;-70
2022/03/14 05:21:25;;;;;;;13.63;7.70;;;;;;;20.04;40.13;102126.16;5114711;27;20079;-70
2022/03/14 05:23:50;;;;;;;18.33;9.03;;;;;;;18.80;41.74;102124.91;5115290;27;20030;-69
2022/03/14 05:26:16;;;;;;;18.07;8.80;;;;;;;19.69;40.32;102126.22;5093383;27;20077;-70
2022/03/14 05:28:41;;;;;;;17.57;8.93;;;;;;;19.31;41.04;102130.78;5115160;27;20069;-70
2022/03/14 05:31:06;;;;;;;14.37;8.07;;;;;;;18.47;43.01;102140.69;5133124;27;20023;-69
2022/03/14 05:33:31;;;;;;;13.27;7.90;;;;;;;18.85;41.75;102139.84;5132364;27;20034;-70
2022/03/14 05:35:57;;;;;;;16.13;8.47;;;;;;;18.72;42.92;102147.22;5114571;27;20027;-70
2022/03/14 05:38:23;;;;;;;14.07;8.07;;;;;;;18.97;41.99;102158.13;5133266;27;20027;-70
2022/03/14 05:40:50;;;;;;;14.83;8.73;;;;;;;18.31;43.10;102158.69;5132507;27;20023;-70
2022/03/14 05:43:17;;;;;;;13.13;8.13;;;;;;;19.36;41.09;102166.00;5132387;27;20497;-69
2022/03/14 05:45:43;;;;;;;15.40;8.17;;;;;;;20.21;39.42;102162.81;5133660;27;20027;-70
2022/03/14 05:48:08;;;;;;;14.17;7.60;;;;;;;19.57;40.33;102158.38;5112909;27;20355;-70
2022/03/14 05:50:34;;;;;;;17.37;9.03;;;;;;;19.45;41.09;102175.47;5133571;27;20034;-70
2022/03/14 05:52:59;;;;;;;18.23;8.80;;;;;;;19.22;40.95;102165.44;5114321;27;20023;-70
2022/03/14 05:55:25;;;;;;;15.40;8.43;;;;;;;18.99;42.17;102166.91;5132497;27;20031;-70
2022/03/14 05:57:51;;;;;;;15.90;8.43;;;;;;;19.38;40.76;102174.75;5113864;27;20504;-70
2022/03/14 06:00:22;;;;;;;15.30;8.67;;;;;;;19.61;40.80;102187.41;5114535;27;20027;-70
2022/03/14 06:02:48;;;;;;;17.23;8.90;;;;;;;20.40;39.00;102200.31;5113241;27;20414;-69
2022/03/14 06:05:15;;;;;;;18.97;9.20;;;;;;;20.07;39.70;102205.66;5114202;27;20027;-70
2022/03/14 06:07:41;;;;;;;13.20;8.17;;;;;;;20.53;39.10;102203.47;5131081;27;20113;-70
2022/03/14 06:10:07;;;;;;;12.97;8.07;;;;;;;20.26;39.48;102206.88;5114153;27;20030;-70
2022/03/14 06:12:33;;;;;;;14.30;9.20;;;;;;;20.49;38.78;102208.00;5093905;28;20031;-70
2022/03/14 06:15:00;;;;;;;14.30;8.77;;;;;;;19.67;40.79;102212.91;5093321;28;20428;-69
2022/03/14 06:17:25;;;;;;;17.77;9.30;;;;;;;18.82;42.15;102218.47;5110364;27;20050;-70
2022/03/14 06:19:51;;;;;;;16.40;9.80;;;;;;;19.92;40.45;102215.81;5132737;27;20073;-70
2022/03/14 06:22:19;;;;;;;14.87;9.23;;;;;;;19.61;40.98;102221.03;5131682;27;20030;-70
2022/03/14 06:24:46;;;;;;;16.73;9.20;;;;;;;19.92;40.07;102225.53;5132746;27;20074;-70
2022/03/14 06:27:12;;;;;;;17.63;10.23;;;;;;;20.08;40.22;102220.69;5113172;27;20398;-70
2022/03/14 06:29:37;;;;;;;20.43;10.80;;;;;;;20.16;39.02;102232.81;5112974;27;20019;-70
2022/03/14 06:32:04;;;;;;;16.17;10.67;;;;;;;20.01;39.95;102233.25;5132086;27;20027;-70
2022/03/14 06:34:30;;;;;;;18.53;10.63;;;;;;;19.26;41.31;102243.97;5109861;27;20031;-70
2022/03/14 06:36:55;;;;;;;18.87;11.30;;;;;;;20.42;39.39;102243.63;5111156;27;20023;-70
2022/03/14 06:39:21;;;;;;;18.83;10.53;;;;;;;20.47;39.01;102239.91;5113348;27;20037;-70
2022/03/14 06:41:47;;;;;;;19.67;10.90;;;;;;;21.11;37.95;102244.19;5130389;27;20025;-70
2022/03/14 06:44:14;;;;;;;21.60;11.73;;;;;;;20.46;38.49;102251.44;5092174;28;20053;-70
2022/03/14 06:46:40;;;;;;;20.70;11.17;;;;;;;20.36;39.30;102255.28;5123957;27;20116;-70
2022/03/14 06:49:06;;;;;;;18.30;11.40;;;;;;;20.32;39.29;102258.97;5112512;27;20492;-70
2022/03/14 06:51:31;;;;;;;20.77;10.70;;;;;;;20.16;39.28;102259.38;5130017;27;20015;-70
2022/03/14 06:53:57;;;;;;;18.30;10.83;;;;;;;19.43;40.80;102273.63;5109002;27;20385;-70
2022/03/14 06:56:22;;;;;;;15.73;9.80;;;;;;;19.91;40.38;102271.59;5112726;27;20023;-70
2022/03/14 06:58:47;;;;;;;18.83;10.70;;;;;;;19.10;42.50;102280.59;5111205;27;20051;-70
2022/03/14 07:01:13;;;;;;;15.20;9.40;;;;;;;19.87;40.13;102281.38;5079211;28;20077;-70
2022/03/14 07:03:38;;;;;;;18.17;10.20;;;;;;;19.81;40.23;102279.78;5132234;27;20031;-70
2022/03/14 07:06:04;;;;;;;25.07;10.50;;;;;;;20.51;39.49;102286.72;5111814;28;20044;-70
2022/03/14 07:08:30;;;;;;;23.13;11.53;;;;;;;20.64;38.94;102289.88;5113456;27;20027;-70
2022/03/14 07:10:55;;;;;;;21.83;12.20;;;;;;;20.26;39.83;102301.59;5111861;27;20051;-69
2022/03/14 07:13:21;;;;;;;27.10;12.80;;;;;;;19.24;41.85;102304.13;5112755;27;20498;-70
2022/03/14 07:15:46;;;;;;;23.20;11.40;;;;;;;20.04;40.22;102302.16;5131255;27;20498;-70
2022/03/14 07:18:11;;;;;;;24.13;12.50;;;;;;;20.71;38.92;102301.22;5130266;27;20027;-70
2022/03/14 07:20:38;;;;;;;26.13;13.07;;;;;;;20.19;40.15;102300.03;5131051;27;20470;-69
2022/03/14 07:23:05;;;;;;;25.77;13.10;;;;;;;21.31;37.99;102304.72;5112840;27;20023;-69
2022/03/14 07:25:35;;;;;;;24.90;13.93;;;;;;;20.25;39.52;102311.34;5129533;27;20043;-70
2022/03/14 07:28:07;;;;;;;28.20;14.33;;;;;;;20.99;38.67;102311.03;5112723;27;20387;-70
2022/03/14 07:30:32;;;;;;;25.33;13.53;;;;;;;19.58;40.68;102319.25;5112928;28;20100;-70
2022/03/14 07:32:58;;;;;;;23.33;13.10;;;;;;;20.33;40.00;102319.09;5122822;27;20046;-69
2022/03/14 07:35:24;;;;;;;31.27;15.20;;;;;;;20.80;38.68;102330.19;5050530;28;20529;-70
2022/03/14 07:37:50;;;;;;;23.37;12.03;;;;;;;20.97;38.35;102320.84;5111485;28;20046;-70
2022/03/14 07:40:16;;;;;;;33.93;16.07;;;;;;;19.53;41.09;102326.44;5128128;27;21427;-70
2022/03/14 07:42:43;;;;;;;25.50;13.77;;;;;;;20.62;39.65;102322.69;5130296;28;20034;-69
2022/03/14 07:45:10;;;;;;;25.13;13.30;;;;;;;20.28;39.61;102331.63;5112011;28;20079;-70
2022/03/14 07:47:36;;;;;;;25.67;13.20;;;;;;;19.61;40.65;102329.78;5111699;28;20031;-70
2022/03/14 07:50:01;;;;;;;30.73;15.30;;;;;;;20.27;39.96;102329.88;5111388;28;20030;-70
2022/03/14 07:52:26;;;;;;;32.53;16.10;;;;;;;20.11;40.47;102340.03;5130269;27;20027;-70
2022/03/14 07:54:52;;;;;;;29.63;16.40;;;;;;;20.96;38.60;102340.34;5130017;28;20023;-70
2022/03/14 07:57:17;;;;;;;33.80;16.33;;;;;;;20.27;39.85;102340.50;5112280;28;20023;-70
2022/03/14 07:59:46;;;;;;;32.17;15.87;;;;;;;20.64;39.11;102344.78;5129827;28;20487;-70
2022/03/14 08:02:12;;;;;;;36.70;18.07;;;;;;;20.12;40.43;102347.94;5129490;28;20575;-69
2022/03/14 08:04:39;;;;;;;33.77;16.37;;;;;;;19.59;40.74;102358.97;5129762;28;20409;-69
2022/03/14 08:07:05;;;;;;;36.17;17.80;;;;;;;20.97;38.95;102358.06;5130225;28;20031;-69
2022/03/14 08:09:32;;;;;;;31.17;15.90;;;;;;;20.53;39.09;102362.84;5130762;28;20030;-69
2022/03/14 08:12:04;;;;;;;31.40;14.97;;;;;;;20.26;39.47;102375.94;5129918;28;20054;-69
2022/03/14 08:14:30;;;;;;;;;;;;;;;19.77;40.67;102378.88;5112335;28;20023;-69
2022/03/14 08:16:55;;;;;;;29.77;13.90;;;;;;;19.49;41.17;102373.34;5112507;28;19908;-69
2022/03/14 08:19:21;;;;;;;29.70;14.80;;;;;;;20.51;38.89;102384.97;5129293;28;20034;-69
2022/03/14 08:21:47;;;;;;;31.07;14.97;;;;;;;20.32;39.51;102392.56;5111991;28;20035;-69
2022/03/14 08:24:13;;;;;;;27.57;14.27;;;;;;;19.42;40.89;102404.44;5130691;27;20051;-69
2022/03/14 08:26:38;;;;;;;22.73;13.27;;;;;;;19.80;40.16;102407.16;5115847;27;20023;-69
2022/03/14 08:29:04;;;;;;;22.93;13.03;;;;;;;20.87;38.31;102412.38;5131026;27;20494;-69
2022/03/14 08:31:32;;;;;;;26.20;14.40;;;;;;;19.58;40.51;102412.06;5127313;27;20110;-69
2022/03/14 08:33:57;;;;;;;25.93;13.77;;;;;;;19.15;41.62;102414.75;5124007;27;20027;-69
2022/03/14 08:36:23;;;;;;;20.93;11.97;;;;;;;19.34;41.16;102427.59;5093683;28;20035;-69
2022/03/14 08:38:48;;;;;;;31.53;15.10;;;;;;;19.50;40.55;102429.00;5114203;28;20395;-69
2022/03/14 08:41:16;;;;;;;27.93;15.30;;;;;;;20.17;38.87;102425.69;5130117;27;20046;-69
2022/03/14 08:43:43;;;;;;;28.83;15.53;;;;;;;20.11;39.58;102424.97;5114674;27;20474;-70
2022/03/14 08:46:09;;;;;;;35.37;16.17;;;;;;;18.99;42.67;102434.50;5109421;27;20030;-69
2022/03/14 08:48:35;;;;;;;27.00;14.60;;;;;;;19.64;40.32;102436.63;5087497;27;20042;-69
2022/03/14 08:51:00;;;;;;;31.73;17.27;;;;;;;19.94;40.32;102446.63;5132783;27;20023;-69
2022/03/14 08:53:25;;;;;;;28.73;14.93;;;;;;;20.40;39.29;102453.44;5114997;27;20015;-69
2022/03/14 08:55:55;;;;;;;31.70;16.53;;;;;;;20.16;39.44;102455.78;5114949;27;20506;-69
2022/03/14 08:58:21;;;;;;;32.83;16.47;;;;;;;20.01;39.99;102453.53;5132833;27;20046;-69
2022/03/14 09:00:46;;;;;;;35.33;17.07;;;;;;;20.39;39.20;102451.69;5132933;27;20035;-69
2022/03/14 09:03:12;;;;;;;26.47;14.50;;;;;;;21.19;37.54;102453.97;5133391;27;20125;-69
2022/03/14 09:05:37;;;;;;;24.83;13.90;;;;;;;20.99;37.65;102457.19;5132693;27;20188;-69
2022/03/14 09:08:03;;;;;;;28.53;14.23;;;;;;;20.24;39.54;102474.19;5114988;27;20135;-69
2022/03/14 09:10:28;;;;;;;33.20;16.93;;;;;;;19.59;40.79;102473.03;5110264;27;20019;-69
2022/03/14 09:12:55;;;;;;;32.17;15.30;;;;;;;19.91;40.25;102475.88;5114726;27;20122;-70
2022/03/14 09:15:21;;;;;;;33.87;17.23;;;;;;;19.86;40.22;102473.31;5133679;27;20435;-69
2022/03/14 09:17:51;;;;;;;38.00;18.97;;;;;;;20.00;40.06;102475.66;5132063;27;20031;-69
2022/03/14 09:20:21;;;;;;;40.13;17.53;;;;;;;20.25;38.92;102470.63;5114505;27;20039;-69
2022/03/14 09:22:47;;;;;;;35.23;19.00;;;;;;;20.30;39.57;102475.81;5132838;27;20035;-72
2022/03/14 09:25:17;;;;;;;43.37;20.30;;;;;;;20.77;39.09;102479.06;5131798;27;20051;-71
2022/03/14 09:27:43;;;;;;;45.47;20.20;;;;;;;20.79;38.00;102487.88;5114696;27;20027;-71
2022/03/14 09:30:10;;;;;;;45.83;21.93;;;;;;;20.12;39.68;102485.13;5121770;27;20019;-71
2022/03/14 09:32:35;;;;;;;35.30;18.73;;;;;;;21.22;37.51;102485.78;5131827;27;20073;-71
2022/03/14 09:35:03;;;;;;;33.63;18.60;;;;;;;20.48;38.70;102487.75;5112664;27;20035;-71
2022/03/14 09:37:29;;;;;;;35.23;17.10;;;;;;;21.74;36.59;102494.03;5075173;28;20391;-71
2022/03/14 09:39:55;;;;;;;30.43;15.20;;;;;;;21.35;37.41;102496.97;5127184;27;20514;-71
2022/03/14 09:42:22;;;;;;;26.40;13.23;;;;;;;22.62;35.07;102503.66;5133176;27;20016;-71
2022/03/14 09:44:53;;;;;;;26.07;11.80;;;;;;;21.96;36.37;102509.34;5115251;27;20031;-71
2022/03/14 09:47:23;;;;;;;23.40;11.47;;;;;;;21.14;37.32;102503.75;5119085;27;20499;-71
2022/03/14 09:49:52;;;;;;;20.67;11.33;;;;;;;20.60;38.66;102502.53;5102305;28;20028;-72
2022/03/14 09:52:18;;;;;;;21.10;11.50;;;;;;;21.33;37.24;102514.72;5109940;27;20031;-72
2022/03/14 09:54:44;;;;;;;21.03;10.77;;;;;;;21.78;36.34;102511.66;5112917;27;20030;-72
2022/03/14 09:57:09;;;;;;;26.77;11.70;;;;;;;21.49;36.84;102516.03;5113523;27;20035;-72
2022/03/14 09:59:36;;;;;;;24.60;11.03;;;;;;;22.25;35.42;102518.19;5130263;27;20086;-72
2022/03/14 10:02:01;;;;;;;20.57;9.93;;;;;;;21.96;36.08;102526.19;5095091;28;20399;-72
2022/03/14 10:04:27;;;;;;;23.90;12.33;;;;;;;21.76;35.87;102523.25;5100107;27;20027;-72
2022/03/14 10:06:52;;;;;;;25.43;12.47;;;;;;;21.29;36.82;102529.91;5112473;27;20106;-72
2022/03/14 10:09:18;;;;;;;25.50;12.63;;;;;;;20.32;38.84;102540.41;5113978;27;20031;-72
2022/03/14 10:11:44;;;;;;;33.93;17.77;;;;;;;19.97;39.18;102542.94;5131804;27;20023;-73
2022/03/14 10:14:11;;;;;;;38.17;19.47;;;;;;;20.66;38.54;102536.88;5103741;27;20031;-72
2022/03/14 10:16:37;;;;;;;35.00;16.77;;;;;;;20.77;37.41;102547.25;5113551;27;20059;-73
2022/03/14 10:19:05;;;;;;;25.43;13.73;;;;;;;22.20;35.86;102544.94;5130912;27;20077;-72
2022/03/14 10:21:31;;;;;;;30.73;13.97;;;;;;;23.01;34.08;102553.81;5111362;28;20031;-72
2022/03/14 10:24:02;;;;;;;25.13;12.03;;;;;;;23.17;34.06;102565.72;5106464;27;20034;-72
2022/03/14 10:26:29;;;;;;;25.30;11.73;;;;;;;23.00;34.06;102560.09;5112251;27;20027;-72
2022/03/14 10:28:56;;;;;;;23.63;12.00;;;;;;;22.72;34.70;102569.03;5112657;27;20109;-72
2022/03/14 10:31:37;;;;;;;21.08;10.60;;;;;;;23.12;33.58;102567.72;5131582;27;20035;-72
2022/03/14 10:34:05;;;;;;;23.13;11.50;;;;;;;22.44;35.07;102569.97;5113533;27;20061;-73
2022/03/14 10:36:43;;;;;;;29.63;12.40;;;;;;;20.99;37.52;102571.50;5112786;27;20019;-72
2022/03/14 10:39:16;;;;;;;25.67;13.40;;;;;;;22.84;35.05;102573.09;5112285;27;20122;-72
2022/03/14 10:41:45;;;;;;;27.47;13.93;;;;;;;23.86;33.56;102558.72;5131718;27;20031;-72
2022/03/14 10:44:22;;;;;;;30.73;15.30;;;;;;;24.12;32.48;102563.06;5078286;27;20057;-72
2022/03/14 10:46:48;;;;;;;33.08;16.55;;;;;;;22.69;34.05;102575.34;5112306;27;20035;-72
2022/03/14 10:49:15;;;;;;;33.45;16.50;;;;;;;23.17;33.56;102584.38;5111611;27;20073;-72
2022/03/14 10:51:57;;;;;;;24.98;16.33;;;;;;;21.55;36.50;102589.50;5111935;27;20031;-72
2022/03/14 10:54:23;;;;;;;32.45;17.20;;;;;;;21.34;36.48;102591.81;5112418;27;20034;-72
2022/03/14 10:57:09;;;;;;;31.50;16.23;;;;;;;22.92;34.50;102602.16;5110367;27;20019;-72
2022/03/14 10:59:36;;;;;;;33.57;13.93;;;;;;;22.70;35.02;102600.22;5113006;27;20032;-72
2022/03/14 11:02:03;;;;;;;24.92;12.63;;;;;;;20.09;38.50;102613.47;5131005;27;20541;-72
2022/03/14 11:04:29;;;;;;;25.77;14.07;;;;;;;22.24;35.38;102607.00;5111856;27;20023;-72
2022/03/14 11:06:59;;;;;;;28.20;13.38;;;;;;;21.45;36.15;102610.13;5111841;27;20106;-72
2022/03/14 11:09:39;;;;;;;34.60;15.75;;;;;;;21.82;35.06;102613.56;5112504;27;20318;-72
2022/03/14 11:12:07;;;;;;;31.40;15.40;;;;;;;21.45;36.37;102615.47;5111991;27;20384;-71
2022/03/14 11:14:32;;;;;;;41.67;20.63;;;;;;;21.42;36.41;102615.56;5112530;27;20071;-72